createdAt,value
2023-03-26T00:01:36.966Z,6.25
2023-03-26T00:04:07.527Z,6.25
2023-03-26T00:06:39.558Z,6.22
2023-03-26T00:09:10.680Z,6.21
2023-03-26T00:11:38.572Z,6.19
2023-03-26T00:14:06.541Z,6.17
2023-03-26T00:16:34.420Z,6.13
2023-03-26T00:19:02.720Z,6.12
2023-03-26T00:21:31.612Z,6.10
2023-03-26T00:24:04.841Z,6.09
2023-03-26T00:26:38.517Z,6.09
2023-03-26T00:29:08.347Z,6.10
2023-03-26T00:31:39.869Z,6.12
2023-03-26T00:34:08.556Z,6.13
2023-03-26T00:36:36.428Z,6.14
2023-03-26T00:39:06.268Z,6.15
2023-03-26T00:41:37.379Z,6.17
2023-03-26T00:44:05.565Z,6.20
2023-03-26T00:46:33.400Z,6.23
2023-03-26T00:49:04.034Z,6.26
2023-03-26T00:51:34.189Z,6.30
2023-03-26T00:54:02.606Z,6.32
2023-03-26T00:56:30.904Z,6.33
2023-03-26T00:59:00.385Z,6.33
2023-03-26T01:01:30.590Z,6.34
2023-03-26T01:04:19.783Z,6.35
2023-03-26T01:06:47.767Z,6.35
2023-03-26T01:09:19.185Z,6.35
2023-03-26T01:11:47.772Z,6.35
2023-03-26T01:14:23.906Z,6.31
2023-03-26T01:16:55.260Z,6.32
2023-03-26T01:19:25.957Z,6.34
2023-03-26T01:21:53.716Z,6.30
2023-03-26T01:24:22.262Z,6.35
2023-03-26T01:27:32.143Z,6.37
2023-03-26T01:30:37.204Z,6.41
2023-03-26T01:33:14.396Z,6.43
2023-03-26T01:36:01.149Z,6.44
2023-03-26T01:39:00.550Z,6.47
2023-03-26T01:41:49.396Z,6.44
2023-03-26T01:44:28.649Z,6.44
2023-03-26T01:46:58.200Z,6.42
2023-03-26T01:49:29.274Z,6.38
2023-03-26T01:51:58.102Z,6.37
2023-03-26T01:54:31.547Z,6.37
2023-03-26T01:57:12.900Z,6.36
2023-03-26T01:59:53.032Z,6.37
2023-03-26T02:02:31.083Z,6.37
2023-03-26T02:05:13.093Z,6.35
2023-03-26T02:07:58.624Z,6.34
2023-03-26T02:10:30.333Z,6.30
2023-03-26T02:12:59.158Z,6.25
2023-03-26T02:15:27.184Z,6.20
2023-03-26T02:17:55.112Z,6.19
2023-03-26T02:20:23.122Z,6.21
2023-03-26T02:22:50.937Z,6.22
2023-03-26T02:25:20.816Z,6.25
2023-03-26T02:27:50.095Z,6.26
2023-03-26T02:30:25.805Z,6.27
2023-03-26T02:32:54.418Z,6.28
2023-03-26T02:35:22.890Z,6.32
2023-03-26T02:37:51.076Z,6.35
2023-03-26T02:40:21.241Z,6.36
2023-03-26T02:42:49.358Z,6.39
2023-03-26T02:45:17.246Z,6.43
2023-03-26T02:47:46.112Z,6.45
2023-03-26T02:50:14.699Z,6.47
2023-03-26T02:52:43.271Z,6.50
2023-03-26T02:55:11.165Z,6.53
2023-03-26T02:57:39.125Z,6.56
2023-03-26T03:00:16.946Z,6.59
2023-03-26T03:02:48.163Z,6.60
2023-03-26T03:05:18.193Z,6.62
2023-03-26T03:07:46.642Z,6.62
2023-03-26T03:10:15.489Z,6.62
2023-03-26T03:12:43.426Z,6.59
2023-03-26T03:15:11.916Z,6.57
2023-03-26T03:17:40.692Z,6.55
2023-03-26T03:20:11.515Z,6.52
2023-03-26T03:22:39.841Z,6.48
2023-03-26T03:25:14.486Z,6.45
2023-03-26T03:27:42.962Z,6.41
2023-03-26T03:30:13.259Z,6.40
2023-03-26T03:32:41.182Z,6.39
2023-03-26T03:35:09.270Z,6.37
2023-03-26T03:37:37.334Z,6.36
2023-03-26T03:40:07.811Z,6.33
2023-03-26T03:42:35.599Z,6.29
2023-03-26T03:45:06.053Z,6.29
2023-03-26T03:47:33.968Z,6.27
2023-03-26T03:50:02.222Z,6.27
2023-03-26T03:52:30.587Z,6.28
2023-03-26T03:55:00.509Z,6.29
2023-03-26T03:57:29.218Z,6.28
2023-03-26T04:00:00.003Z,6.28
2023-03-26T04:02:34.716Z,6.29
2023-03-26T04:05:04.208Z,6.30
2023-03-26T04:07:32.799Z,6.29
2023-03-26T04:10:03.016Z,6.30
2023-03-26T04:12:31.459Z,6.32
2023-03-26T04:15:00.557Z,6.35
2023-03-26T04:17:30.598Z,6.35
2023-03-26T04:19:58.806Z,6.37
2023-03-26T04:22:36.680Z,6.39
2023-03-26T04:25:05.397Z,6.40
2023-03-26T04:27:38.040Z,6.40
2023-03-26T04:30:08.320Z,6.39
2023-03-26T04:32:38.348Z,6.39
2023-03-26T04:35:06.996Z,6.41
2023-03-26T04:37:40.219Z,6.44
2023-03-26T04:40:14.117Z,6.45
2023-03-26T04:42:46.086Z,6.47
2023-03-26T04:45:16.574Z,6.48
2023-03-26T04:47:46.800Z,6.50
2023-03-26T04:50:15.628Z,6.52
2023-03-26T04:52:45.129Z,6.52
2023-03-26T04:55:40.196Z,6.52
2023-03-26T04:58:09.647Z,6.53
2023-03-26T05:00:37.457Z,6.55
2023-03-26T05:03:06.459Z,6.55
2023-03-26T05:05:34.522Z,6.56
2023-03-26T05:08:02.487Z,6.57
2023-03-26T05:10:30.453Z,6.59
2023-03-26T05:12:58.420Z,6.59
2023-03-26T05:15:26.392Z,6.59
2023-03-26T05:17:55.767Z,6.62
2023-03-26T05:20:26.485Z,6.63
2023-03-26T05:22:54.329Z,6.65
2023-03-26T05:25:22.663Z,6.69
2023-03-26T05:27:50.747Z,6.75
2023-03-26T05:30:21.300Z,6.78
2023-03-26T05:32:49.569Z,6.83
2023-03-26T05:35:18.362Z,6.90
2023-03-26T05:37:47.521Z,6.97
2023-03-26T05:40:17.287Z,7.03
2023-03-26T05:42:45.678Z,7.09
2023-03-26T05:45:15.017Z,7.13
2023-03-26T05:47:43.408Z,7.17
2023-03-26T05:50:11.682Z,7.19
2023-03-26T05:52:40.066Z,7.19
2023-03-26T05:55:08.926Z,7.19
2023-03-26T05:57:37.673Z,7.17
2023-03-26T06:00:09.012Z,7.11
2023-03-26T06:02:36.862Z,7.01
2023-03-26T06:05:05.298Z,6.96
2023-03-26T06:07:34.103Z,6.97
2023-03-26T06:10:03.000Z,6.95
2023-03-26T06:12:30.849Z,6.96
2023-03-26T06:14:58.841Z,6.94
2023-03-26T06:17:26.839Z,6.91
2023-03-26T06:19:54.689Z,6.90
2023-03-26T06:22:22.530Z,6.92
2023-03-26T06:24:52.877Z,6.87
2023-03-26T06:27:20.816Z,6.83
2023-03-26T06:29:48.702Z,6.82
2023-03-26T06:32:19.565Z,6.85
2023-03-26T06:34:48.220Z,6.87
2023-03-26T06:37:17.107Z,6.89
2023-03-26T06:39:44.899Z,6.91
2023-03-26T06:42:12.725Z,6.99
2023-03-26T06:44:40.552Z,7.04
2023-03-26T06:47:08.321Z,7.11
2023-03-26T06:49:38.346Z,7.21
2023-03-26T06:52:06.253Z,7.31
2023-03-26T06:54:34.030Z,7.39
2023-03-26T06:57:01.883Z,7.46
2023-03-26T06:59:29.910Z,7.57
2023-03-26T07:01:57.796Z,7.65
2023-03-26T07:04:25.779Z,7.71
2023-03-26T07:06:54.041Z,7.76
2023-03-26T07:09:21.882Z,7.82
2023-03-26T07:11:49.777Z,7.84
2023-03-26T07:14:17.658Z,7.84
2023-03-26T07:16:45.458Z,7.89
2023-03-26T07:19:13.474Z,7.90
2023-03-26T07:21:41.851Z,7.96
2023-03-26T07:24:11.769Z,7.97
2023-03-26T07:27:01.356Z,8.02
2023-03-26T07:29:43.956Z,8.09
2023-03-26T07:32:19.177Z,8.12
2023-03-26T07:34:59.350Z,8.15
2023-03-26T07:37:57.419Z,8.14
2023-03-26T07:40:45.620Z,8.18
2023-03-26T07:43:34.743Z,8.21
2023-03-26T07:46:02.972Z,8.22
2023-03-26T07:48:43.134Z,8.29
2023-03-26T07:51:11.787Z,8.38
2023-03-26T07:53:40.218Z,8.47
2023-03-26T07:56:13.595Z,8.51
2023-03-26T07:59:00.339Z,8.54
2023-03-26T08:01:40.472Z,8.52
2023-03-26T08:04:25.997Z,8.49
2023-03-26T08:07:05.392Z,8.46
2023-03-26T08:10:02.744Z,8.48
2023-03-26T08:13:11.885Z,8.56
2023-03-26T08:16:08.305Z,8.71
2023-03-26T08:19:13.849Z,8.83
2023-03-26T08:22:08.360Z,8.98
2023-03-26T08:25:17.749Z,9.10
2023-03-26T08:28:04.361Z,9.28
2023-03-26T08:30:32.811Z,9.36
2023-03-26T08:33:12.089Z,9.42
2023-03-26T08:35:42.643Z,9.42
2023-03-26T08:38:11.933Z,9.33
2023-03-26T08:41:17.175Z,9.33
2023-03-26T08:44:19.640Z,9.32
2023-03-26T08:47:06.246Z,9.34
2023-03-26T08:49:40.365Z,9.24
2023-03-26T08:52:14.268Z,9.25
2023-03-26T08:54:42.146Z,9.29
2023-03-26T08:57:31.808Z,9.28
2023-03-26T09:00:31.314Z,9.31
2023-03-26T09:03:14.435Z,9.39
2023-03-26T09:06:25.399Z,9.48
2023-03-26T09:08:59.745Z,9.51
2023-03-26T09:12:05.358Z,9.59
2023-03-26T09:14:54.975Z,9.63
2023-03-26T09:17:47.831Z,9.69
2023-03-26T09:20:54.830Z,9.82
2023-03-26T09:23:52.828Z,9.97
2023-03-26T09:26:32.282Z,9.92
2023-03-26T09:29:38.901Z,9.88
2023-03-26T09:32:32.971Z,9.85
2023-03-26T09:35:27.252Z,9.88
2023-03-26T09:38:33.201Z,9.90
2023-03-26T09:41:32.507Z,9.91
2023-03-26T09:44:56.581Z,9.87
2023-03-26T09:48:14.315Z,9.92
2023-03-26T09:50:42.586Z,9.86
2023-03-26T09:53:25.712Z,9.87
2023-03-26T09:55:57.461Z,9.80
2023-03-26T09:58:28.681Z,9.85
2023-03-26T10:01:14.848Z,10.17
2023-03-26T10:04:02.132Z,10.54
2023-03-26T10:06:49.082Z,10.79
2023-03-26T10:09:30.411Z,10.73
2023-03-26T10:12:20.539Z,10.60
2023-03-26T10:15:09.653Z,10.53
2023-03-26T10:17:51.427Z,10.54
2023-03-26T10:20:47.813Z,10.50
2023-03-26T10:23:34.196Z,10.45
2023-03-26T10:26:21.416Z,10.24
2023-03-26T10:29:08.241Z,9.83
2023-03-26T10:31:44.084Z,9.62
2023-03-26T10:34:29.445Z,9.59
2023-03-26T10:37:07.755Z,9.55
2023-03-26T10:40:01.545Z,9.61
2023-03-26T10:42:45.690Z,9.59
2023-03-26T10:45:24.861Z,9.68
2023-03-26T10:48:23.152Z,9.83
2023-03-26T10:51:19.969Z,9.90
2023-03-26T10:53:56.917Z,9.98
2023-03-26T10:56:33.522Z,10.01
2023-03-26T10:59:06.561Z,10.05
2023-03-26T11:01:56.355Z,10.05
2023-03-26T11:05:02.002Z,10.10
2023-03-26T11:07:45.018Z,10.16
2023-03-26T11:10:36.247Z,10.20
2023-03-26T11:13:38.815Z,10.32
2023-03-26T11:16:17.261Z,10.46
2023-03-26T11:19:27.539Z,10.62
2023-03-26T11:22:26.291Z,10.73
2023-03-26T11:25:12.683Z,10.80
2023-03-26T11:27:56.799Z,10.83
2023-03-26T11:30:51.656Z,10.77
2023-03-26T11:33:48.985Z,10.68
2023-03-26T11:36:29.377Z,10.65
2023-03-26T11:39:00.294Z,10.87
2023-03-26T11:41:32.753Z,11.09
2023-03-26T11:44:07.709Z,11.35
2023-03-26T11:46:42.604Z,11.45
2023-03-26T11:49:14.635Z,11.35
2023-03-26T11:51:44.901Z,11.25
2023-03-26T11:54:13.595Z,11.28
2023-03-26T11:57:05.619Z,11.21
2023-03-26T11:59:55.377Z,11.12
2023-03-26T12:02:38.873Z,11.15
2023-03-26T12:05:20.538Z,11.17
2023-03-26T12:07:56.881Z,11.22
2023-03-26T12:10:26.700Z,11.15
2023-03-26T12:13:01.295Z,11.06
2023-03-26T12:15:32.013Z,11.04
2023-03-26T12:18:23.198Z,11.19
2023-03-26T12:21:03.489Z,11.29
2023-03-26T12:23:36.249Z,11.13
2023-03-26T12:26:12.251Z,10.99
2023-03-26T12:28:45.072Z,10.86
2023-03-26T12:31:19.328Z,10.75
2023-03-26T12:34:07.815Z,10.69
2023-03-26T12:36:36.784Z,10.59
2023-03-26T12:40:10.011Z,10.52
2023-03-26T12:44:48.737Z,10.27
2023-03-26T12:45:29.058Z,10.02
2023-03-26T12:48:03.945Z,9.87
2023-03-26T12:50:41.584Z,9.70
2023-03-26T12:53:29.308Z,9.52
2023-03-26T12:56:27.393Z,9.56
2023-03-26T12:59:07.640Z,9.72
2023-03-26T13:01:52.983Z,9.99
2023-03-26T13:04:27.485Z,10.16
2023-03-26T13:07:11.276Z,10.28
2023-03-26T13:09:59.938Z,10.38
2023-03-26T13:12:34.969Z,10.47
2023-03-26T13:15:27.322Z,10.60
2023-03-26T13:18:33.465Z,10.65
2023-03-26T13:21:01.230Z,10.66
2023-03-26T13:23:38.229Z,10.67
2023-03-26T13:26:24.718Z,10.67
2023-03-26T13:29:09.268Z,10.75
2023-03-26T13:31:45.445Z,10.67
2023-03-26T13:34:26.416Z,10.64
2023-03-26T13:37:11.098Z,10.55
2023-03-26T13:40:32.928Z,10.57
2023-03-26T13:43:36.607Z,10.81
2023-03-26T13:46:22.478Z,11.04
2023-03-26T13:49:02.023Z,11.13
2023-03-26T13:51:40.775Z,11.16
2023-03-26T13:54:14.660Z,11.19
2023-03-26T13:56:47.987Z,11.28
2023-03-26T13:59:45.066Z,11.30
2023-03-26T14:02:30.833Z,11.30
2023-03-26T14:05:28.856Z,11.27
2023-03-26T14:08:17.921Z,11.28
2023-03-26T14:10:58.889Z,11.16
2023-03-26T14:13:54.812Z,11.18
2023-03-26T14:16:28.105Z,11.12
2023-03-26T14:19:33.772Z,11.11
2023-03-26T14:22:23.020Z,10.89
2023-03-26T14:24:58.820Z,10.74
2023-03-26T14:27:38.564Z,10.70
2023-03-26T14:30:12.419Z,10.81
2023-03-26T14:33:14.593Z,10.75
2023-03-26T14:36:44.990Z,10.60
2023-03-26T14:39:30.909Z,10.45
2023-03-26T14:42:02.279Z,10.38
2023-03-26T14:44:47.558Z,10.30
2023-03-26T14:47:20.583Z,10.43
2023-03-26T14:50:20.574Z,10.58
2023-03-26T14:52:52.975Z,10.70
2023-03-26T14:55:44.007Z,10.78
2023-03-26T14:58:28.243Z,10.87
2023-03-26T15:01:17.641Z,10.93
2023-03-26T15:04:22.832Z,10.98
2023-03-26T15:07:19.797Z,11.04
2023-03-26T15:09:53.573Z,11.12
2023-03-26T15:12:24.367Z,11.16
2023-03-26T15:15:14.145Z,11.18
2023-03-26T15:18:06.497Z,11.19
2023-03-26T15:21:13.059Z,11.23
2023-03-26T15:24:06.725Z,11.12
2023-03-26T15:26:56.965Z,10.97
2023-03-26T15:29:35.631Z,10.93
2023-03-26T15:32:17.428Z,10.94
2023-03-26T15:34:48.785Z,10.91
2023-03-26T15:37:54.444Z,10.88
2023-03-26T15:40:31.120Z,10.83
2023-03-26T15:43:11.168Z,10.83
2023-03-26T15:45:44.457Z,10.83
2023-03-26T15:48:32.600Z,10.85
2023-03-26T15:51:03.218Z,10.85
2023-03-26T15:53:43.887Z,10.88
2023-03-26T15:56:20.760Z,10.83
2023-03-26T15:59:06.026Z,10.79
2023-03-26T16:02:04.710Z,10.81
2023-03-26T16:05:05.234Z,10.79
2023-03-26T16:07:58.911Z,10.78
2023-03-26T16:10:59.075Z,10.71
2023-03-26T16:13:38.607Z,10.63
2023-03-26T16:16:15.560Z,10.58
2023-03-26T16:18:46.693Z,10.55
2023-03-26T16:21:30.646Z,10.47
2023-03-26T16:24:03.418Z,10.42
2023-03-26T16:26:43.263Z,10.36
2023-03-26T16:29:18.390Z,10.29
2023-03-26T16:32:37.826Z,10.21
2023-03-26T16:35:14.550Z,10.07
2023-03-26T16:37:50.199Z,9.98
2023-03-26T16:40:18.140Z,9.90
2023-03-26T16:43:10.710Z,9.83
2023-03-26T16:46:03.828Z,9.73
2023-03-26T16:48:50.777Z,9.63
2023-03-26T16:51:40.148Z,9.52
2023-03-26T16:54:43.611Z,9.38
2023-03-26T16:57:17.293Z,9.28
2023-03-26T17:00:13.859Z,9.20
2023-03-26T17:02:42.762Z,9.10
2023-03-26T17:05:26.023Z,9.04
2023-03-26T17:08:12.666Z,8.95
2023-03-26T17:10:47.024Z,8.85
2023-03-26T17:13:23.594Z,8.78
2023-03-26T17:16:26.919Z,8.70
2023-03-26T17:19:04.586Z,8.60
2023-03-26T17:21:55.592Z,8.52
2023-03-26T17:24:30.693Z,8.46
2023-03-26T17:27:24.509Z,8.36
2023-03-26T17:30:17.875Z,8.24
2023-03-26T17:33:21.739Z,8.13
2023-03-26T17:35:52.367Z,8.00
2023-03-26T17:38:26.841Z,7.87
2023-03-26T17:40:58.964Z,7.77
2023-03-26T17:43:35.910Z,7.67
2023-03-26T17:46:13.664Z,7.56
2023-03-26T17:48:47.169Z,7.45
2023-03-26T17:51:40.436Z,7.34
2023-03-26T17:54:17.769Z,7.18
2023-03-26T17:56:47.719Z,7.06
2023-03-26T17:59:23.628Z,6.93
2023-03-26T18:01:55.925Z,6.82
2023-03-26T18:04:30.807Z,6.70
2023-03-26T18:07:32.666Z,6.62
2023-03-26T18:10:03.228Z,6.50
2023-03-26T18:12:56.291Z,6.44
2023-03-26T18:15:46.085Z,6.39
2023-03-26T18:18:20.238Z,6.35
2023-03-26T18:20:50.821Z,6.32
2023-03-26T18:23:29.792Z,6.31
2023-03-26T18:26:09.222Z,6.31
2023-03-26T18:28:45.596Z,6.33
2023-03-26T18:31:24.061Z,6.35
2023-03-26T18:33:59.143Z,6.36
2023-03-26T18:36:28.159Z,6.37
2023-03-26T18:38:58.821Z,6.38
2023-03-26T18:41:31.541Z,6.40
2023-03-26T18:44:05.626Z,6.43
2023-03-26T18:46:34.237Z,6.45
2023-03-26T18:49:03.158Z,6.47
2023-03-26T18:51:32.401Z,6.50
2023-03-26T18:54:04.924Z,6.51
2023-03-26T18:56:35.501Z,6.50
2023-03-26T18:59:22.139Z,6.45
2023-03-26T19:01:50.971Z,6.40
2023-03-26T19:04:19.320Z,6.33
2023-03-26T19:06:47.417Z,6.28
2023-03-26T19:09:28.130Z,6.21
2023-03-26T19:12:16.474Z,6.13
2023-03-26T19:14:54.376Z,6.05
2023-03-26T19:17:24.638Z,5.99
2023-03-26T19:19:54.304Z,5.92
2023-03-26T19:22:26.168Z,5.85
2023-03-26T19:25:01.301Z,5.79
2023-03-26T19:27:29.853Z,5.72
2023-03-26T19:29:57.929Z,5.69
2023-03-26T19:32:34.945Z,5.65
2023-03-26T19:35:04.683Z,5.59
2023-03-26T19:37:33.346Z,5.54
2023-03-26T19:40:22.489Z,5.51
2023-03-26T19:42:50.857Z,5.48
2023-03-26T19:45:21.933Z,5.43
2023-03-26T19:48:03.642Z,5.37
2023-03-26T19:50:46.007Z,5.30
2023-03-26T19:53:25.695Z,5.24
2023-03-26T19:56:05.268Z,5.17
2023-03-26T19:58:35.818Z,5.12
2023-03-26T20:01:04.814Z,5.08
2023-03-26T20:03:44.526Z,5.03
2023-03-26T20:06:14.882Z,4.99
2023-03-26T20:08:43.792Z,4.96
2023-03-26T20:11:22.048Z,4.91
2023-03-26T20:13:50.738Z,4.88
2023-03-26T20:16:26.659Z,4.87
2023-03-26T20:18:58.461Z,4.86
2023-03-26T20:21:26.591Z,4.83
2023-03-26T20:23:55.304Z,4.82
2023-03-26T20:26:24.336Z,4.80
2023-03-26T20:28:53.852Z,4.79
2023-03-26T20:31:25.457Z,4.78
2023-03-26T20:33:54.339Z,4.73
2023-03-26T20:36:34.173Z,4.68
2023-03-26T20:39:07.910Z,4.63
2023-03-26T20:41:45.675Z,4.60
2023-03-26T20:44:16.773Z,4.56
2023-03-26T20:46:46.088Z,4.54
2023-03-26T20:49:18.207Z,4.55
2023-03-26T20:51:46.944Z,4.56
2023-03-26T20:54:20.231Z,4.61
2023-03-26T20:56:49.326Z,4.64
2023-03-26T20:59:21.810Z,4.69
2023-03-26T21:01:50.682Z,4.75
2023-03-26T21:04:19.780Z,4.81
2023-03-26T21:06:48.283Z,4.88
2023-03-26T21:09:19.223Z,4.93
2023-03-26T21:12:01.811Z,5.00
2023-03-26T21:14:44.249Z,5.05
2023-03-26T21:17:22.259Z,5.12
2023-03-26T21:19:50.499Z,5.16
2023-03-26T21:22:44.717Z,5.17
2023-03-26T21:25:45.392Z,5.17
2023-03-26T21:28:17.359Z,5.16
2023-03-26T21:30:47.253Z,5.13
2023-03-26T21:33:15.326Z,5.07
2023-03-26T21:35:44.895Z,5.01
2023-03-26T21:38:13.647Z,4.96
2023-03-26T21:40:46.969Z,4.90
2023-03-26T21:43:21.878Z,4.85
2023-03-26T21:45:50.287Z,4.83
2023-03-26T21:48:18.514Z,4.79
2023-03-26T21:50:46.871Z,4.76
2023-03-26T21:53:15.916Z,4.73
2023-03-26T21:56:12.527Z,4.70
2023-03-26T21:59:17.544Z,4.60
2023-03-26T22:02:12.853Z,4.51
2023-03-26T22:04:53.664Z,4.44
2023-03-26T22:07:49.405Z,4.38
2023-03-26T22:10:17.407Z,4.29
2023-03-26T22:12:45.476Z,4.25
2023-03-26T22:15:14.076Z,4.20
2023-03-26T22:17:42.268Z,4.13
2023-03-26T22:20:14.775Z,4.08
2023-03-26T22:22:49.047Z,4.02
2023-03-26T22:25:18.286Z,3.95
2023-03-26T22:27:47.197Z,3.92
2023-03-26T22:30:15.798Z,3.88
2023-03-26T22:32:44.845Z,3.83
2023-03-26T22:35:13.135Z,3.79
2023-03-26T22:37:41.851Z,3.74
2023-03-26T22:40:13.103Z,3.70
2023-03-26T22:42:41.881Z,3.68
2023-03-26T22:45:11.232Z,3.64
2023-03-26T22:47:39.392Z,3.61
2023-03-26T22:50:08.331Z,3.54
2023-03-26T22:52:37.258Z,3.50
2023-03-26T22:55:05.493Z,3.48
2023-03-26T22:57:33.564Z,3.48
2023-03-26T23:00:16.485Z,3.47
2023-03-26T23:02:45.286Z,3.47
2023-03-26T23:05:14.292Z,3.49
2023-03-26T23:07:42.644Z,3.51
2023-03-26T23:10:11.373Z,3.51
2023-03-26T23:12:40.425Z,3.51
2023-03-26T23:15:09.996Z,3.52
2023-03-26T23:17:38.347Z,3.51
2023-03-26T23:20:15.147Z,3.51
2023-03-26T23:22:43.472Z,3.51
2023-03-26T23:25:12.589Z,3.53
2023-03-26T23:27:41.634Z,3.54
2023-03-26T23:30:11.044Z,3.53
2023-03-26T23:32:39.087Z,3.54
2023-03-26T23:35:07.733Z,3.57
2023-03-26T23:37:35.679Z,3.57
2023-03-26T23:40:10.308Z,3.59
2023-03-26T23:42:38.269Z,3.59
2023-03-26T23:45:07.083Z,3.57
2023-03-26T23:47:35.047Z,3.61
2023-03-26T23:50:03.692Z,3.67
2023-03-26T23:52:31.799Z,3.74
2023-03-26T23:55:02.374Z,3.78
2023-03-26T23:57:30.664Z,3.80
2023-03-26T23:59:58.593Z,3.83
